»·PEaware :: N975ED KSNA-KMYF

N975ED :: KSNA-KMYF

FLIGHT INFORMATION

Flight Status: Arrived
Operator: Privately registered:
United States
More flights under this callsign
Pilot: Anonymous 10623 (10623)
Aircraft: BEECH AIRCRAFT BONANZA
(BE35)
More flights by this aircraft type
Origin: KSNA John Wayne-Orange Co
United States
Destination: KMYF Montgomery
United States
More flights between these airports :: More routes between these airports
Route: V23 MZB
File this flight plan on PilotEdge
Remarks: TEC route CSTP31
Altitude:
(Current/Filed)
5,000ft
Speed:
(Current/Filed)
150kts
Departed: 22-Sep-20 01:50 PM
Arrived: 22-Sep-20 02:30 PM
Distance/Time
Traveled:
63nm/0:39
Distance/Time
To Go:
Arrived

Flight Plot

Page will automatically refresh every two minutes.


Map Options




Map Legend


Flown Route
Filed Route
Departure Airport
Arrival Airport
Navaid (VOR, NDB)
Fix

Horizontal Profiles

Position Reports

Time Latitude Longitude Heading Altitude Ground
Speed
22-Sep-20 13:37 33.676161 -117.870972 183 52ft 0kts
22-Sep-20 13:38 33.676111 -117.870973 183 52ft 0kts
22-Sep-20 13:39 33.676070 -117.870994 211 52ft 0kts
22-Sep-20 13:40 33.676070 -117.870994 211 52ft 0kts
22-Sep-20 13:41 33.676070 -117.870994 211 52ft 0kts
22-Sep-20 13:42 33.676070 -117.870994 211 52ft 0kts
22-Sep-20 13:43 33.676070 -117.870994 211 52ft 0kts
22-Sep-20 13:44 33.676070 -117.870994 211 52ft 0kts
22-Sep-20 13:45 33.676008 -117.871012 176 52ft 0kts
22-Sep-20 13:46 33.676793 -117.869650 28 52ft 14kts
22-Sep-20 13:47 33.681194 -117.866935 57 43ft 15kts
22-Sep-20 13:48 33.681244 -117.866550 115 43ft 0kts
22-Sep-20 13:49 33.676041 -117.868670 207 69ft 82kts
22-Sep-20 13:50 33.648607 -117.875307 183 826ft 110kts
22-Sep-20 13:51 33.617947 -117.879532 186 1763ft 110kts
22-Sep-20 13:52 33.586878 -117.884226 183 2434ft 109kts
22-Sep-20 13:53 33.564102 -117.868247 102 2951ft 111kts
22-Sep-20 13:54 33.558484 -117.834830 102 3548ft 98kts
22-Sep-20 13:55 33.551569 -117.801954 115 4328ft 105kts
22-Sep-20 13:56 33.536858 -117.770251 128 4994ft 119kts
22-Sep-20 13:57 33.514652 -117.733233 127 5049ft 146kts
22-Sep-20 13:58 33.486666 -117.699606 137 4996ft 136kts
22-Sep-20 13:59 33.457917 -117.671557 138 4997ft 133kts
22-Sep-20 14:00 33.431435 -117.640397 137 4992ft 134kts
22-Sep-20 14:01 33.403461 -117.607589 137 4990ft 144kts
22-Sep-20 14:02 33.374541 -117.573802 137 4990ft 146kts
22-Sep-20 14:03 33.345449 -117.539829 137 4987ft 147kts
22-Sep-20 14:04 33.316016 -117.505450 136 4988ft 148kts
22-Sep-20 14:05 33.286411 -117.471099 137 4989ft 149kts
22-Sep-20 14:06 33.255107 -117.440696 135 4960ft 149kts
22-Sep-20 14:07 33.227196 -117.403981 134 4992ft 148kts
22-Sep-20 14:08 33.199156 -117.367936 132 4995ft 149kts
22-Sep-20 14:09 33.168505 -117.335234 134 5009ft 148kts
22-Sep-20 14:10 33.141119 -117.297645 127 4964ft 151kts
22-Sep-20 14:11 33.114521 -117.260350 131 5029ft 149kts
22-Sep-20 14:12 33.087312 -117.221925 131 4988ft 151kts
22-Sep-20 14:13 33.060765 -117.185555 132 4986ft 151kts
22-Sep-20 14:14 33.032526 -117.148967 130 5004ft 150kts
22-Sep-20 14:15 33.005123 -117.111381 134 4984ft 151kts
22-Sep-20 14:16 32.976277 -117.075210 134 4995ft 149kts
22-Sep-20 14:17 32.948101 -117.038597 132 5006ft 149kts
22-Sep-20 14:18 32.920594 -117.001261 131 4991ft 150kts
22-Sep-20 14:19 32.891736 -116.965485 134 5005ft 150kts
22-Sep-20 14:20 32.863454 -116.928848 133 5001ft 149kts
22-Sep-20 14:21 32.829906 -116.907550 214 4540ft 161kts
22-Sep-20 14:22 32.793146 -116.932095 209 3941ft 144kts
22-Sep-20 14:23 32.761903 -116.957438 245 3821ft 143kts
22-Sep-20 14:24 32.761449 -117.004263 281 2887ft 121kts
22-Sep-20 14:26 32.772142 -117.040040 292 1851ft 122kts
22-Sep-20 14:27 32.786169 -117.074169 292 1314ft 109kts
22-Sep-20 14:28 32.801721 -117.102024 301 876ft 113kts
22-Sep-20 14:29 32.812432 -117.130315 295 520ft 78kts
22-Sep-20 14:30 32.817987 -117.144241 283 415ft 12kts
22-Sep-20 14:31 32.816466 -117.145480 207 419ft 7kts
22-Sep-20 14:32 32.814742 -117.141756 113 422ft 15kts
22-Sep-20 14:33 32.813578 -117.140732 204 421ft 0kts
22-Sep-20 14:34 32.813579 -117.140732 204 421ft 0kts

Navigation Log

Ident Type
Flight plan parsing failed, navigation log unavailable